createdAt,value
2023-05-23T00:01:06.698Z,27.63
2023-05-23T00:03:33.634Z,30.53
2023-05-23T00:06:01.318Z,32.10
2023-05-23T00:08:27.873Z,32.37
2023-05-23T00:10:54.327Z,29.33
2023-05-23T00:13:20.856Z,35.33
2023-05-23T00:15:48.608Z,33.53
2023-05-23T00:18:16.452Z,30.70
2023-05-23T00:20:43.763Z,30.20
2023-05-23T00:23:11.790Z,33.47
2023-05-23T00:25:38.423Z,33.90
2023-05-23T00:28:05.382Z,35.10
2023-05-23T00:30:33.825Z,32.93
2023-05-23T00:33:00.672Z,31.33
2023-05-23T00:35:27.784Z,32.77
2023-05-23T00:37:55.505Z,31.80
2023-05-23T00:40:22.934Z,33.07
2023-05-23T00:42:49.785Z,33.00
2023-05-23T00:45:17.181Z,33.73
2023-05-23T00:47:45.276Z,32.37
2023-05-23T00:50:14.671Z,30.53
2023-05-23T00:52:42.682Z,36.90
2023-05-23T00:55:10.283Z,33.60
2023-05-23T00:57:40.492Z,35.03
2023-05-23T01:00:14.164Z,32.63
2023-05-23T01:02:45.630Z,32.27
2023-05-23T01:05:17.430Z,35.40
2023-05-23T01:07:47.402Z,38.00
2023-05-23T01:10:16.326Z,31.83
2023-05-23T01:13:16.820Z,27.67
2023-05-23T01:15:52.434Z,26.07
2023-05-23T01:18:27.342Z,26.17
2023-05-23T01:20:57.288Z,24.57
2023-05-23T01:23:35.833Z,27.30
2023-05-23T01:26:23.421Z,23.13
2023-05-23T01:28:54.967Z,22.40
2023-05-23T01:31:24.609Z,25.50
2023-05-23T01:33:53.461Z,35.53
2023-05-23T01:36:21.284Z,30.47
2023-05-23T01:38:47.801Z,26.73
2023-05-23T01:41:14.249Z,29.27
2023-05-23T01:43:40.738Z,26.77
2023-05-23T01:46:08.075Z,34.50
2023-05-23T01:48:35.037Z,32.83
2023-05-23T01:51:02.091Z,27.03
2023-05-23T01:53:30.440Z,30.50
2023-05-23T01:55:57.277Z,27.47
2023-05-23T01:58:23.788Z,26.47
2023-05-23T02:00:50.362Z,26.70
2023-05-23T02:03:17.019Z,26.60
2023-05-23T02:05:43.876Z,33.07
2023-05-23T02:08:10.524Z,23.90
2023-05-23T02:10:37.024Z,25.87
2023-05-23T02:13:03.762Z,27.13
2023-05-23T02:15:30.211Z,28.00
2023-05-23T02:17:56.785Z,26.13
2023-05-23T02:20:23.241Z,26.40
2023-05-23T02:22:49.772Z,25.80
2023-05-23T02:25:16.297Z,28.07
2023-05-23T02:27:42.890Z,22.87
2023-05-23T02:30:09.840Z,24.27
2023-05-23T02:32:38.083Z,22.00
2023-05-23T02:35:06.194Z,23.27
2023-05-23T02:37:32.604Z,24.77
2023-05-23T02:39:59.079Z,19.33
2023-05-23T02:42:25.618Z,24.20
2023-05-23T02:44:52.043Z,23.77
2023-05-23T02:47:18.495Z,22.43
2023-05-23T02:49:44.982Z,21.73
2023-05-23T02:52:11.393Z,21.73
2023-05-23T02:54:37.947Z,21.87
2023-05-23T02:57:05.005Z,21.93
2023-05-23T02:59:31.436Z,17.27
2023-05-23T03:01:57.890Z,17.80
2023-05-23T03:04:24.398Z,19.33
2023-05-23T03:06:54.415Z,18.07
2023-05-23T03:09:21.002Z,17.53
2023-05-23T03:11:47.584Z,17.30
2023-05-23T03:14:14.193Z,16.73
2023-05-23T03:16:40.980Z,17.60
2023-05-23T03:19:07.574Z,15.50
2023-05-23T03:21:35.612Z,14.93
2023-05-23T03:24:02.197Z,17.37
2023-05-23T03:26:28.846Z,13.57
2023-05-23T03:28:56.217Z,12.60
2023-05-23T03:31:22.899Z,12.67
2023-05-23T03:33:49.570Z,10.43
2023-05-23T03:36:16.215Z,8.43
2023-05-23T03:38:42.864Z,7.73
2023-05-23T03:41:09.492Z,8.83
2023-05-23T03:43:36.016Z,9.47
2023-05-23T03:46:02.761Z,7.00
2023-05-23T03:48:30.645Z,6.73
2023-05-23T03:50:57.224Z,6.30
2023-05-23T03:53:23.936Z,8.23
2023-05-23T03:55:50.772Z,5.07
2023-05-23T03:58:17.354Z,4.90
2023-05-23T04:00:43.939Z,8.90
2023-05-23T04:03:11.785Z,6.40
2023-05-23T04:05:38.445Z,5.20
2023-05-23T04:08:05.246Z,5.37
2023-05-23T04:10:31.868Z,5.87
2023-05-23T04:12:58.997Z,5.93
2023-05-23T04:15:25.922Z,5.33
2023-05-23T04:17:52.693Z,6.43
2023-05-23T04:20:19.518Z,4.70
2023-05-23T04:22:46.211Z,7.83
2023-05-23T04:25:13.786Z,5.60
2023-05-23T04:27:40.712Z,7.30
2023-05-23T04:30:09.264Z,8.63
2023-05-23T04:32:36.410Z,8.10
2023-05-23T04:35:04.195Z,9.47
2023-05-23T04:37:33.111Z,9.83
2023-05-23T04:40:02.228Z,12.30
2023-05-23T04:42:29.325Z,12.83
2023-05-23T04:44:58.200Z,11.03
2023-05-23T04:47:25.017Z,10.47
2023-05-23T04:49:53.968Z,10.17
2023-05-23T04:52:20.721Z,11.57
2023-05-23T04:54:48.845Z,9.87
2023-05-23T04:57:15.747Z,12.00
2023-05-23T04:59:43.063Z,11.43
2023-05-23T05:02:09.672Z,18.50
2023-05-23T05:04:36.448Z,11.30
2023-05-23T05:07:04.500Z,11.27
2023-05-23T05:09:33.831Z,11.20
2023-05-23T05:12:00.402Z,10.50
2023-05-23T05:14:27.600Z,12.10
2023-05-23T05:16:57.881Z,12.63
2023-05-23T05:19:24.669Z,12.20
2023-05-23T05:21:51.288Z,11.73
2023-05-23T05:24:17.844Z,10.47
2023-05-23T05:26:44.279Z,12.80
2023-05-23T05:29:11.309Z,12.90
2023-05-23T05:31:38.315Z,11.10
2023-05-23T05:34:04.845Z,11.87
2023-05-23T05:36:32.439Z,10.87
2023-05-23T05:38:59.006Z,11.37
2023-05-23T05:41:26.870Z,11.40
2023-05-23T05:43:53.458Z,14.80
2023-05-23T05:46:20.049Z,12.53
2023-05-23T05:48:47.184Z,15.10
2023-05-23T05:51:13.638Z,12.53
2023-05-23T05:53:40.074Z,14.63
2023-05-23T05:56:09.105Z,12.30
2023-05-23T05:58:35.866Z,12.80
2023-05-23T06:01:02.434Z,13.80
2023-05-23T06:03:29.044Z,17.10
2023-05-23T06:05:55.597Z,19.40
2023-05-23T06:08:22.646Z,18.00
2023-05-23T06:10:49.302Z,15.87
2023-05-23T06:13:15.927Z,15.97
2023-05-23T06:15:42.356Z,18.47
2023-05-23T06:18:08.924Z,15.43
2023-05-23T06:20:35.528Z,17.57
2023-05-23T06:23:05.349Z,17.17
2023-05-23T06:25:32.022Z,16.97
2023-05-23T06:27:58.493Z,18.93
2023-05-23T06:30:25.167Z,18.77
2023-05-23T06:32:51.628Z,16.33
2023-05-23T06:35:18.112Z,16.13
2023-05-23T06:37:45.805Z,15.80
2023-05-23T06:40:14.499Z,15.27
2023-05-23T06:42:41.622Z,18.33
2023-05-23T06:45:08.685Z,16.10
2023-05-23T06:47:35.291Z,16.67
2023-05-23T06:50:02.643Z,17.43
2023-05-23T06:52:29.082Z,15.77
2023-05-23T06:54:55.647Z,15.37
2023-05-23T06:57:22.125Z,16.50
2023-05-23T06:59:48.608Z,16.43
2023-05-23T07:02:15.115Z,16.63
2023-05-23T07:04:41.540Z,17.60
2023-05-23T07:07:08.021Z,15.90
2023-05-23T07:09:34.544Z,17.67
2023-05-23T07:12:00.969Z,18.33
2023-05-23T07:14:27.456Z,16.50
2023-05-23T07:16:53.925Z,16.83
2023-05-23T07:19:20.432Z,17.30
2023-05-23T07:21:47.006Z,17.33
2023-05-23T07:24:13.452Z,19.20
2023-05-23T07:26:39.888Z,19.33
2023-05-23T07:29:07.071Z,17.53
2023-05-23T07:31:33.622Z,18.90
2023-05-23T07:34:00.073Z,17.43
2023-05-23T07:36:27.667Z,18.70
2023-05-23T07:38:54.319Z,18.00
2023-05-23T07:41:20.865Z,22.53
2023-05-23T07:43:47.287Z,19.17
2023-05-23T07:46:13.787Z,18.00
2023-05-23T07:48:40.321Z,19.30
2023-05-23T07:51:07.102Z,20.53
2023-05-23T07:53:33.638Z,16.63
2023-05-23T07:56:00.149Z,17.13
2023-05-23T07:58:26.649Z,18.17
2023-05-23T08:00:53.575Z,17.37
2023-05-23T08:03:20.215Z,21.50
2023-05-23T08:05:47.251Z,17.90
2023-05-23T08:08:13.779Z,15.20
2023-05-23T08:10:40.547Z,18.07
2023-05-23T08:13:08.799Z,17.67
2023-05-23T08:15:35.548Z,16.70
2023-05-23T08:18:02.256Z,16.03
2023-05-23T08:20:32.122Z,16.57
2023-05-23T08:23:02.348Z,21.57
2023-05-23T08:25:32.423Z,19.10
2023-05-23T08:28:00.155Z,19.90
2023-05-23T08:30:28.077Z,15.87
2023-05-23T08:32:56.025Z,19.53
2023-05-23T08:35:23.047Z,16.53
2023-05-23T08:37:50.838Z,16.60
2023-05-23T08:40:22.150Z,20.10
2023-05-23T08:42:50.317Z,17.77
2023-05-23T08:45:17.877Z,17.00
2023-05-23T08:47:45.883Z,18.00
2023-05-23T08:50:14.909Z,15.90
2023-05-23T08:52:50.384Z,20.10
2023-05-23T08:55:17.723Z,15.70
2023-05-23T08:57:45.610Z,17.80
2023-05-23T09:00:14.866Z,15.50
2023-05-23T09:02:44.290Z,15.23
2023-05-23T09:05:11.265Z,16.50
2023-05-23T09:07:38.375Z,13.30
2023-05-23T09:10:07.693Z,13.70
2023-05-23T09:12:37.088Z,12.83
2023-05-23T09:15:05.372Z,17.43
2023-05-23T09:17:33.522Z,11.57
2023-05-23T09:20:01.013Z,10.67
2023-05-23T09:22:28.732Z,12.90
2023-05-23T09:24:56.326Z,12.43
2023-05-23T09:27:23.483Z,12.60
2023-05-23T09:29:50.646Z,13.00
2023-05-23T09:32:18.750Z,13.33
2023-05-23T09:35:04.213Z,16.77
2023-05-23T09:37:32.765Z,12.90
2023-05-23T09:40:06.520Z,13.90
2023-05-23T09:42:36.493Z,12.50
2023-05-23T09:45:04.741Z,10.40
2023-05-23T09:47:31.844Z,10.20
2023-05-23T09:49:58.714Z,10.67
2023-05-23T09:52:25.242Z,9.70
2023-05-23T09:54:51.740Z,10.53
2023-05-23T09:57:21.553Z,13.23
2023-05-23T09:59:57.255Z,11.47
2023-05-23T10:02:54.420Z,10.93
2023-05-23T10:05:49.212Z,9.63
2023-05-23T10:08:27.264Z,10.30
2023-05-23T10:10:56.767Z,11.40
2023-05-23T10:13:28.125Z,11.40
2023-05-23T10:16:12.575Z,12.60
2023-05-23T10:18:48.843Z,13.53
2023-05-23T10:21:20.954Z,14.07
2023-05-23T10:23:48.250Z,16.07
2023-05-23T10:26:15.561Z,17.20
2023-05-23T10:28:42.409Z,14.83
2023-05-23T10:31:09.527Z,18.20
2023-05-23T10:33:43.251Z,15.50
2023-05-23T10:36:18.089Z,14.57
2023-05-23T10:39:19.957Z,17.53
2023-05-23T10:41:53.005Z,15.67
2023-05-23T10:44:30.823Z,14.60
2023-05-23T10:47:01.653Z,14.07
2023-05-23T10:49:51.632Z,18.00
2023-05-23T10:52:18.301Z,15.80
2023-05-23T10:54:51.228Z,16.43
2023-05-23T10:57:21.935Z,14.10
2023-05-23T10:59:51.914Z,15.67
2023-05-23T11:02:25.374Z,15.30
2023-05-23T11:05:18.494Z,15.37
2023-05-23T11:07:44.932Z,16.30
2023-05-23T11:10:14.054Z,12.77
2023-05-23T11:12:42.677Z,15.60
2023-05-23T11:15:18.255Z,19.60
2023-05-23T11:17:53.604Z,16.07
2023-05-23T11:20:23.598Z,18.13
2023-05-23T11:23:08.075Z,13.70
2023-05-23T11:25:52.125Z,14.27
2023-05-23T11:28:18.948Z,13.60
2023-05-23T11:30:48.671Z,15.63
2023-05-23T11:33:17.053Z,14.47
2023-05-23T11:35:45.956Z,17.27
2023-05-23T11:38:13.901Z,16.87
2023-05-23T11:40:42.745Z,17.50
2023-05-23T11:43:15.140Z,19.33
2023-05-23T11:45:42.750Z,21.70
2023-05-23T11:48:14.637Z,17.80
2023-05-23T11:50:45.939Z,16.93
2023-05-23T11:53:13.633Z,18.07
2023-05-23T11:55:41.842Z,18.27
2023-05-23T11:58:09.411Z,15.53
2023-05-23T12:00:43.582Z,18.73
2023-05-23T12:03:10.257Z,16.00
2023-05-23T12:05:36.807Z,16.47
2023-05-23T12:08:03.442Z,19.37
2023-05-23T12:10:29.901Z,14.80
2023-05-23T12:12:56.467Z,16.30
2023-05-23T12:15:29.648Z,17.60
2023-05-23T12:17:56.978Z,17.30
2023-05-23T12:20:24.319Z,17.40
2023-05-23T12:22:50.752Z,13.50
2023-05-23T12:25:17.483Z,14.77
2023-05-23T12:27:44.227Z,18.27
2023-05-23T12:30:16.092Z,15.67
2023-05-23T12:32:44.937Z,19.03
2023-05-23T12:35:13.808Z,16.90
2023-05-23T12:37:43.185Z,20.70
2023-05-23T12:40:14.367Z,19.40
2023-05-23T12:42:54.242Z,20.00
2023-05-23T12:45:23.380Z,15.57
2023-05-23T12:47:53.019Z,21.20
2023-05-23T12:50:20.689Z,17.50
2023-05-23T12:52:47.217Z,15.67
2023-05-23T12:55:13.735Z,18.50
2023-05-23T12:57:40.188Z,15.50
2023-05-23T13:00:07.182Z,14.27
2023-05-23T13:02:33.914Z,18.10
2023-05-23T13:05:00.549Z,15.20
2023-05-23T13:07:27.064Z,17.80
2023-05-23T13:09:53.539Z,17.00
2023-05-23T13:12:19.950Z,21.17
2023-05-23T13:14:46.543Z,21.13
2023-05-23T13:17:13.095Z,22.50
2023-05-23T13:19:39.658Z,22.73
2023-05-23T13:22:10.261Z,18.90
2023-05-23T13:24:37.746Z,18.80
2023-05-23T13:27:05.389Z,21.90
2023-05-23T13:29:32.343Z,20.57
2023-05-23T13:31:59.405Z,22.70
2023-05-23T13:34:27.166Z,20.60
2023-05-23T13:36:53.617Z,20.63
2023-05-23T13:39:22.693Z,20.10
2023-05-23T13:41:50.179Z,18.80
2023-05-23T13:44:16.740Z,18.33
2023-05-23T13:46:44.010Z,17.60
2023-05-23T13:49:10.503Z,16.80
2023-05-23T13:51:40.023Z,15.87
2023-05-23T13:54:06.579Z,15.17
2023-05-23T13:56:33.675Z,14.80
2023-05-23T13:59:00.558Z,15.20
2023-05-23T14:01:27.259Z,15.70
2023-05-23T14:03:53.739Z,20.90
2023-05-23T14:06:20.163Z,20.10
2023-05-23T14:08:46.633Z,20.70
2023-05-23T14:11:13.172Z,23.10
2023-05-23T14:13:39.602Z,23.70
2023-05-23T14:16:06.359Z,24.90
2023-05-23T14:18:32.828Z,23.13
2023-05-23T14:20:59.281Z,24.83
2023-05-23T14:23:25.721Z,23.63
2023-05-23T14:25:52.162Z,23.90
2023-05-23T14:28:18.601Z,23.10
2023-05-23T14:30:45.743Z,23.43
2023-05-23T14:33:12.260Z,23.20
2023-05-23T14:35:39.946Z,22.53
2023-05-23T14:38:06.671Z,20.17
2023-05-23T14:40:33.199Z,20.17
2023-05-23T14:42:59.620Z,21.03
2023-05-23T14:45:26.261Z,20.27
2023-05-23T14:47:52.898Z,21.00
2023-05-23T14:50:19.574Z,19.53
2023-05-23T14:52:46.137Z,18.40
2023-05-23T14:55:12.729Z,16.43
2023-05-23T14:57:39.452Z,18.83
2023-05-23T15:00:06.825Z,17.70
2023-05-23T15:02:33.346Z,17.83
2023-05-23T15:04:59.843Z,17.27
2023-05-23T15:07:26.548Z,17.83
2023-05-23T15:09:53.002Z,16.17
2023-05-23T15:12:19.504Z,15.33
2023-05-23T15:14:45.955Z,12.30
2023-05-23T15:17:12.986Z,12.73
2023-05-23T15:19:42.757Z,14.13
2023-05-23T15:22:15.807Z,15.40
2023-05-23T15:24:49.057Z,13.63
2023-05-23T15:27:20.671Z,13.50
2023-05-23T15:29:48.272Z,14.07
2023-05-23T15:32:14.764Z,13.93
2023-05-23T15:34:41.265Z,13.53
2023-05-23T15:37:07.698Z,14.40
2023-05-23T15:39:34.124Z,13.17
2023-05-23T15:42:00.659Z,12.80
2023-05-23T15:44:27.379Z,13.57
2023-05-23T15:46:54.008Z,12.13
2023-05-23T15:49:26.657Z,13.40
2023-05-23T15:51:54.924Z,25.83
2023-05-23T15:54:21.511Z,11.73
2023-05-23T15:56:48.004Z,11.43
2023-05-23T15:59:14.509Z,12.77
2023-05-23T16:01:41.898Z,10.93
2023-05-23T16:04:08.782Z,11.53
2023-05-23T16:06:36.594Z,10.80
2023-05-23T16:09:03.555Z,14.20
2023-05-23T16:11:30.034Z,13.07
2023-05-23T16:13:56.471Z,14.80
2023-05-23T16:16:23.058Z,14.93
2023-05-23T16:18:49.609Z,16.07
2023-05-23T16:21:20.508Z,18.00
2023-05-23T16:23:48.486Z,16.90
2023-05-23T16:26:16.605Z,17.07
2023-05-23T16:28:43.638Z,16.93
2023-05-23T16:31:13.972Z,15.73
2023-05-23T16:33:40.440Z,15.50
2023-05-23T16:36:07.063Z,16.73
2023-05-23T16:38:33.542Z,16.50
2023-05-23T16:41:00.030Z,17.57
2023-05-23T16:43:26.446Z,17.43
2023-05-23T16:45:52.892Z,16.30
2023-05-23T16:48:20.686Z,17.07
2023-05-23T16:50:47.117Z,17.63
2023-05-23T16:53:13.578Z,17.23
2023-05-23T16:55:40.177Z,17.20
2023-05-23T16:58:06.846Z,16.10
2023-05-23T17:00:33.429Z,16.93
2023-05-23T17:02:59.987Z,18.30
2023-05-23T17:05:26.723Z,19.23
2023-05-23T17:07:53.676Z,15.43
2023-05-23T17:10:20.480Z,16.50
2023-05-23T17:12:47.008Z,16.63
2023-05-23T17:15:13.483Z,15.27
2023-05-23T17:17:41.245Z,15.73
2023-05-23T17:20:09.558Z,14.53
2023-05-23T17:22:37.622Z,13.77
2023-05-23T17:25:06.355Z,15.77
2023-05-23T17:27:33.331Z,13.63
2023-05-23T17:29:59.992Z,15.80
2023-05-23T17:32:27.078Z,14.40
2023-05-23T17:34:53.568Z,13.90
2023-05-23T17:37:19.987Z,15.00
2023-05-23T17:39:46.842Z,8.77
2023-05-23T17:42:13.583Z,11.93
2023-05-23T17:44:40.287Z,9.13
2023-05-23T17:47:06.938Z,10.60
2023-05-23T17:49:33.890Z,11.40
2023-05-23T17:52:04.615Z,9.17
2023-05-23T17:54:31.526Z,8.43
2023-05-23T17:56:57.995Z,11.27
2023-05-23T17:59:24.528Z,12.37
2023-05-23T18:01:51.630Z,9.80
2023-05-23T18:04:18.223Z,9.40
2023-05-23T18:06:44.738Z,16.17
2023-05-23T18:09:11.615Z,16.50
2023-05-23T18:11:38.393Z,12.70
2023-05-23T18:14:04.905Z,11.40
2023-05-23T18:16:32.276Z,11.20
2023-05-23T18:18:59.693Z,8.87
2023-05-23T18:21:26.921Z,10.00
2023-05-23T18:23:53.391Z,9.47
2023-05-23T18:26:19.815Z,10.37
2023-05-23T18:28:46.278Z,12.60
2023-05-23T18:31:12.781Z,11.30
2023-05-23T18:33:39.244Z,11.70
2023-05-23T18:36:06.787Z,9.37
2023-05-23T18:38:33.344Z,12.87
2023-05-23T18:40:59.852Z,11.50
2023-05-23T18:43:26.282Z,10.73
2023-05-23T18:45:52.763Z,11.60
2023-05-23T18:48:19.249Z,11.60
2023-05-23T18:50:45.828Z,8.73
2023-05-23T18:53:12.345Z,8.20
2023-05-23T18:55:38.868Z,7.50
2023-05-23T18:58:05.419Z,10.20
2023-05-23T19:00:31.915Z,7.37
2023-05-23T19:02:58.452Z,11.20
2023-05-23T19:05:26.760Z,13.27
2023-05-23T19:07:53.307Z,7.27
2023-05-23T19:10:19.826Z,9.73
2023-05-23T19:12:46.395Z,8.57
2023-05-23T19:15:13.108Z,8.00
2023-05-23T19:17:39.716Z,8.00
2023-05-23T19:20:06.824Z,6.13
2023-05-23T19:22:46.972Z,5.93
2023-05-23T19:25:17.238Z,8.57
2023-05-23T19:27:43.729Z,10.40
2023-05-23T19:30:11.565Z,8.77
2023-05-23T19:32:38.150Z,6.53
2023-05-23T19:35:05.309Z,8.77
2023-05-23T19:37:31.912Z,9.23
2023-05-23T19:39:58.885Z,9.47
2023-05-23T19:42:25.393Z,17.73
2023-05-23T19:44:52.279Z,7.10
2023-05-23T19:47:18.796Z,9.60
2023-05-23T19:49:45.734Z,9.47
2023-05-23T19:52:12.173Z,5.87
2023-05-23T19:54:38.888Z,12.53
2023-05-23T19:57:05.896Z,10.23
2023-05-23T19:59:32.402Z,7.27
2023-05-23T20:01:59.247Z,7.40
2023-05-23T20:04:25.956Z,11.57
2023-05-23T20:06:52.521Z,8.40
2023-05-23T20:09:19.046Z,10.70
2023-05-23T20:11:46.394Z,15.00
2023-05-23T20:14:12.857Z,8.23
2023-05-23T20:16:39.376Z,6.70
2023-05-23T20:19:06.519Z,6.67
2023-05-23T20:21:33.312Z,10.57
2023-05-23T20:23:59.788Z,9.27
2023-05-23T20:26:26.857Z,11.80
2023-05-23T20:28:53.365Z,8.27
2023-05-23T20:31:19.954Z,11.00
2023-05-23T20:33:46.384Z,10.47
2023-05-23T20:36:12.999Z,6.23
2023-05-23T20:38:40.972Z,6.20
2023-05-23T20:41:07.520Z,7.10
2023-05-23T20:43:37.186Z,5.47
2023-05-23T20:46:09.506Z,9.17
2023-05-23T20:48:35.981Z,9.53
2023-05-23T20:51:02.703Z,6.77
2023-05-23T20:53:29.992Z,4.70
2023-05-23T20:55:56.473Z,9.97
2023-05-23T20:58:22.996Z,8.40
2023-05-23T21:00:50.808Z,8.10
2023-05-23T21:03:18.140Z,9.67
2023-05-23T21:05:45.159Z,11.93
2023-05-23T21:08:11.879Z,11.77
2023-05-23T21:10:38.346Z,12.10
2023-05-23T21:13:04.873Z,8.90
2023-05-23T21:15:31.458Z,8.47
2023-05-23T21:17:57.994Z,7.17
2023-05-23T21:20:24.967Z,9.13
2023-05-23T21:22:51.437Z,12.20
2023-05-23T21:25:17.864Z,9.80
2023-05-23T21:27:44.371Z,10.60
2023-05-23T21:30:11.454Z,9.57
2023-05-23T21:32:38.072Z,13.47
2023-05-23T21:35:04.964Z,8.17
2023-05-23T21:37:31.367Z,14.53
2023-05-23T21:39:57.800Z,12.67
2023-05-23T21:42:25.485Z,7.63
2023-05-23T21:44:51.988Z,8.83
2023-05-23T21:47:18.522Z,8.17
2023-05-23T21:49:44.980Z,11.90
2023-05-23T21:52:11.485Z,10.50
2023-05-23T21:54:37.927Z,7.00
2023-05-23T21:57:04.653Z,7.90
2023-05-23T21:59:31.113Z,6.97
2023-05-23T22:01:57.816Z,9.73
2023-05-23T22:04:24.473Z,7.63
2023-05-23T22:06:51.927Z,7.37
2023-05-23T22:09:18.630Z,7.30
2023-05-23T22:11:45.419Z,10.73
2023-05-23T22:14:11.888Z,13.00
2023-05-23T22:16:41.075Z,12.30
2023-05-23T22:19:09.768Z,7.83
2023-05-23T22:21:36.888Z,9.33
2023-05-23T22:24:03.704Z,7.27
2023-05-23T22:26:30.295Z,10.00
2023-05-23T22:28:56.846Z,6.50
2023-05-23T22:31:23.989Z,6.10
2023-05-23T22:33:51.194Z,10.37
2023-05-23T22:36:17.725Z,10.03
2023-05-23T22:38:44.644Z,5.13
2023-05-23T22:41:11.598Z,12.00
2023-05-23T22:43:38.237Z,10.10
2023-05-23T22:46:04.697Z,9.30
2023-05-23T22:48:33.727Z,8.70
2023-05-23T22:51:03.537Z,8.83
2023-05-23T22:53:30.138Z,9.83
2023-05-23T22:55:56.754Z,8.97
2023-05-23T22:58:23.236Z,11.83
2023-05-23T23:00:49.759Z,11.10
2023-05-23T23:03:16.347Z,8.07
2023-05-23T23:05:43.080Z,6.70
2023-05-23T23:08:09.684Z,9.10
2023-05-23T23:10:36.209Z,9.33
2023-05-23T23:13:02.701Z,9.20
2023-05-23T23:15:30.252Z,7.47
2023-05-23T23:17:57.198Z,8.10
2023-05-23T23:20:23.860Z,8.03
2023-05-23T23:22:50.451Z,11.13
2023-05-23T23:25:18.920Z,8.10
2023-05-23T23:27:45.417Z,5.70
2023-05-23T23:30:12.310Z,11.10
2023-05-23T23:32:38.881Z,9.50
2023-05-23T23:35:05.987Z,11.17
2023-05-23T23:37:32.492Z,11.27
2023-05-23T23:39:58.954Z,7.73
2023-05-23T23:42:25.786Z,7.10
2023-05-23T23:44:52.253Z,6.37
2023-05-23T23:47:18.683Z,7.50
2023-05-23T23:49:45.122Z,8.47
2023-05-23T23:52:11.579Z,12.23
2023-05-23T23:54:38.036Z,6.50
2023-05-23T23:57:06.573Z,10.00
2023-05-23T23:59:33.027Z,6.70
